Time;durP1;ratioP1;P1;durP2;ratioP2;P2;SDS_P1;SDS_P2;PMS_P1;PMS_P2;Temp;Humidity;BMP_temperature;BMP_pressure;BME280_temperature;BME280_humidity;BME280_pressure;Samples;Min_cycle;Max_cycle;Signal;HPM_P1;HPM_P2
2021/08/02 00:01:29;;;;;;;24.40;8.07;;;666.20;1996.80;;;;;;5057300;28;20362;-77
2021/08/02 00:04:11;;;;;;;26.40;8.32;;;666.30;1996.80;;;;;;5039130;28;20025;-80
2021/08/02 00:06:46;;;;;;;23.85;7.25;;;666.30;2022.40;;;;;;5057090;28;20096;-78
2021/08/02 00:09:15;;;;;;;20.98;7.65;;;666.10;2022.40;;;;;;5039234;28;20021;-79
2021/08/02 00:12:05;;;;;;;24.95;7.30;;;666.00;2022.40;;;;;;5038926;28;20078;-79
2021/08/02 00:14:32;;;;;;;15.95;6.45;;;666.20;2022.40;;;;;;5039017;28;20025;-77
2021/08/02 00:16:58;;;;;;;23.27;6.85;;;666.30;2022.40;;;;;;5038800;28;20029;-80
2021/08/02 00:19:25;;;;;;;29.65;9.20;;;666.30;2022.40;;;;;;5056542;28;20021;-79
2021/08/02 00:21:51;;;;;;;27.13;6.75;;;666.10;2048.00;;;;;;5038699;28;20395;-81
2021/08/02 00:24:19;;;;;;;23.02;8.15;;;666.00;2048.00;;;;;;5038740;28;20472;-79
2021/08/02 00:26:46;;;;;;;28.42;8.43;;;665.60;2073.60;;;;;;5038823;28;20450;-81
2021/08/02 00:29:13;;;;;;;20.50;7.40;;;665.70;2073.60;;;;;;5038915;28;20021;-78
2021/08/02 00:31:39;;;;;;;22.73;7.75;;;665.70;2099.20;;;;;;5038513;28;20020;-80
2021/08/02 00:34:04;;;;;;;24.25;6.78;;;665.70;2099.20;;;;;;5038682;28;20021;-80
2021/08/02 00:36:43;;;;;;;22.35;7.72;;;665.70;2099.20;;;;;;5038553;28;20025;-80
2021/08/02 00:39:33;;;;;;;21.83;8.18;;;665.70;2099.20;;;;;;5038156;28;20027;-79
2021/08/02 00:42:26;;;;;;;21.77;7.68;;;665.80;2124.80;;;;;;5038508;28;20037;-80
2021/08/02 00:45:02;;;;;;;21.35;6.90;;;665.60;2073.60;;;;;;5055909;28;20017;-80
2021/08/02 00:47:33;;;;;;;22.23;8.25;;;665.60;2073.60;;;;;;5055188;28;20031;-79
2021/08/02 00:50:13;;;;;;;26.40;7.90;;;640.70;2073.60;;;;;;5038437;28;20052;-78
2021/08/02 00:53:01;;;;;;;18.85;6.10;;;640.60;2099.20;;;;;;5038047;28;20032;-80
2021/08/02 00:55:29;;;;;;;20.13;6.57;;;640.50;2124.80;;;;;;5027635;28;20083;-79
2021/08/02 00:58:00;;;;;;;19.52;7.03;;;640.60;2124.80;;;;;;5037933;28;20132;-77
2021/08/02 01:00:26;;;;;;;24.80;8.07;;;640.50;2150.40;;;;;;5037835;28;20029;-81
2021/08/02 01:02:53;;;;;;;29.70;9.02;;;640.50;2124.80;;;;;;5055941;28;20021;-81
2021/08/02 01:05:20;;;;;;;18.85;7.10;;;640.20;2150.40;;;;;;5037928;28;20067;-78
2021/08/02 01:07:51;;;;;;;20.30;6.65;;;640.50;2150.40;;;;;;5037791;28;20111;-79
2021/08/02 01:10:18;;;;;;;23.65;8.40;;;640.50;2150.40;;;;;;5038097;28;20056;-79
2021/08/02 01:12:47;;;;;;;23.67;8.73;;;640.50;2124.80;;;;;;5037726;28;20521;-80
2021/08/02 01:15:16;;;;;;;19.77;6.30;;;640.60;2124.80;;;;;;5037770;28;20139;-79
2021/08/02 01:17:43;;;;;;;19.13;6.53;;;640.50;2150.40;;;;;;5037821;28;20017;-82
2021/08/02 01:20:10;;;;;;;21.80;7.93;;;640.50;2124.80;;;;;;5037660;28;20107;-79
2021/08/02 01:22:37;;;;;;;29.23;7.72;;;640.60;2150.40;;;;;;5037809;28;20017;-78
2021/08/02 01:25:38;;;;;;;29.50;7.28;;;640.50;2150.40;;;;;;5037844;28;20025;-80
2021/08/02 01:28:33;;;;;;;26.73;8.50;;;640.30;2176.00;;;;;;5055409;28;20071;-78
2021/08/02 01:31:01;;;;;;;21.05;7.65;;;640.40;2150.40;;;;;;5037510;28;20106;-81
2021/08/02 01:33:29;;;;;;;27.98;9.52;;;640.40;2176.00;;;;;;5037504;28;20047;-80
2021/08/02 01:36:04;;;;;;;20.42;8.07;;;640.40;2176.00;;;;;;5037478;28;20367;-78
2021/08/02 01:38:32;;;;;;;25.90;8.40;;;640.10;2201.60;;;;;;5055616;28;20044;-78
2021/08/02 01:40:58;;;;;;;23.50;8.45;;;640.10;2201.60;;;;;;5036710;28;20037;-80
2021/08/02 01:43:25;;;;;;;21.52;7.85;;;640.10;2201.60;;;;;;5037469;28;20025;-79
2021/08/02 01:45:57;;;;;;;23.58;7.40;;;615.30;2201.60;;;;;;5037394;28;20020;-79
2021/08/02 01:48:45;;;;;;;21.17;6.75;;;640.00;2176.00;;;;;;5037009;28;20021;-80
2021/08/02 01:51:20;;;;;;;30.40;7.57;;;615.20;2201.60;;;;;;5037367;28;20028;-80
2021/08/02 01:53:56;;;;;;;20.38;6.93;;;640.00;2201.60;;;;;;5037178;28;20017;-80
2021/08/02 01:56:26;;;;;;;19.63;7.57;;;615.20;2227.20;;;;;;5037163;28;20061;-79
2021/08/02 01:58:57;;;;;;;23.55;8.38;;;;;;;;;;5037035;28;20023;-79
2021/08/02 02:01:27;;;;;;;28.25;8.43;;;615.30;2252.80;;;;;;5054842;28;20103;-77
2021/08/02 02:03:54;;;;;;;26.23;7.47;;;;;;;;;;5037217;28;20047;-78
2021/08/02 02:06:24;;;;;;;21.80;7.28;;;;;;;;;;5037005;28;20017;-79
2021/08/02 02:09:02;;;;;;;21.65;7.13;;;;;;;;;;5036784;28;20458;-79
2021/08/02 02:11:28;;;;;;;25.65;7.07;;;;;;;;;;5037416;28;20025;-78
2021/08/02 02:13:56;;;;;;;22.65;7.07;;;;;;;;;;5037209;28;20071;-78
2021/08/02 02:16:23;;;;;;;26.45;7.78;;;;;;;;;;5036918;28;20024;-80
2021/08/02 02:18:52;;;;;;;27.90;7.75;;;;;;;;;;5037443;28;20045;-80
2021/08/02 02:21:19;;;;;;;21.15;8.65;;;;;;;;;;5054773;28;20108;-79
2021/08/02 02:23:46;;;;;;;20.08;8.13;;;;;;;;;;5036824;28;20083;-79
2021/08/02 02:26:13;;;;;;;19.73;7.45;;;;;;;;;;5036899;28;20462;-77
2021/08/02 02:28:40;;;;;;;23.50;7.57;;;;;;;;;;5036358;28;20025;-78
2021/08/02 02:31:07;;;;;;;23.75;7.35;;;;;;;;;;5035550;28;20481;-79
2021/08/02 02:33:34;;;;;;;22.67;8.13;;;;;;;;;;5035633;28;20024;-79
2021/08/02 02:36:01;;;;;;;21.27;7.85;;;;;;;;;;5036197;28;20052;-80
2021/08/02 02:38:27;;;;;;;19.60;7.13;;;;;;;;;;5053845;28;20017;-80
2021/08/02 02:40:54;;;;;;;22.70;6.95;;;;;;;;;;5036328;28;20454;-79
2021/08/02 02:43:20;;;;;;;23.65;7.43;;;;;;;;;;5036088;28;20029;-80
2021/08/02 02:45:47;;;;;;;22.90;7.65;;;;;;;;;;5035363;28;20017;-79
2021/08/02 02:48:14;;;;;;;20.05;7.80;;;;;;;;;;5035587;28;20017;-81
2021/08/02 02:50:42;;;;;;;22.88;6.93;;;;;;;;;;5035458;28;20557;-79
2021/08/02 02:53:10;;;;;;;20.50;7.72;;;;;;;;;;5053866;28;20021;-79
2021/08/02 02:55:36;;;;;;;23.58;6.93;;;;;;;;;;5036090;28;20082;-79
2021/08/02 02:58:03;;;;;;;20.77;7.18;;;;;;;;;;5035716;28;20126;-80
2021/08/02 03:00:29;;;;;;;18.48;6.43;;;;;;;;;;5036140;28;20024;-78
2021/08/02 03:02:56;;;;;;;20.05;7.22;;;;;;;;;;5036161;28;20031;-78
2021/08/02 03:05:23;;;;;;;22.33;8.15;;;;;;;;;;5035835;28;20518;-79
2021/08/02 03:07:51;;;;;;;20.17;8.45;;;;;;;;;;5039485;28;20021;-78
2021/08/02 03:10:18;;;;;;;22.35;8.65;;;;;;;;;;5043079;28;20017;-79
2021/08/02 03:12:44;;;;;;;19.83;6.72;;;;;;;;;;5044275;28;20025;-79
2021/08/02 03:15:11;;;;;;;25.35;7.20;;;;;;;;;;5039415;28;20107;-78
2021/08/02 03:17:37;;;;;;;19.27;7.40;;;;;;;;;;5035989;28;20017;-78
2021/08/02 03:20:03;;;;;;;23.90;8.38;;;;;;;;;;5035536;28;20192;-79
2021/08/02 03:22:35;;;;;;;25.17;8.07;;;;;;;;;;5035789;28;20059;-78
2021/08/02 03:25:15;;;;;;;15.50;6.68;;;;;;;;;;5053911;28;20550;-82
2021/08/02 03:27:47;;;;;;;26.48;7.82;;;;;;;;;;5035768;28;20029;-80
2021/08/02 03:30:13;;;;;;;19.83;6.90;;;589.60;2380.80;;;;;;5035897;28;20029;-80
2021/08/02 03:32:42;;;;;;;22.52;7.60;;;589.50;2355.20;;;;;;5035490;28;20057;-78
2021/08/02 03:35:10;;;;;;;23.00;7.38;;;589.40;2406.40;;;;;;5035693;28;20021;-78
2021/08/02 03:37:38;;;;;;;20.00;7.10;;;589.60;2380.80;;;;;;5053892;28;20032;-79
2021/08/02 03:40:06;;;;;;;18.08;6.72;;;589.50;2406.40;;;;;;5035550;28;20115;-79
2021/08/02 03:42:35;;;;;;;18.35;6.78;;;589.40;2406.40;;;;;;5035410;28;20029;-80
2021/08/02 03:45:03;;;;;;;21.33;8.02;;;589.60;2406.40;;;;;;5035742;28;20029;-78
2021/08/02 03:47:29;;;;;;;22.45;7.88;;;614.40;2380.80;;;;;;5035434;28;20021;-80
2021/08/02 03:49:55;;;;;;;18.85;7.90;;;614.50;2380.80;;;;;;5035476;28;20450;-81
2021/08/02 03:52:23;;;;;;;27.58;9.02;;;614.50;2406.40;;;;;;5035525;28;20370;-80
2021/08/02 03:54:49;;;;;;;28.77;9.25;;;614.60;2406.40;;;;;;5035388;28;20036;-78
2021/08/02 03:57:16;;;;;;;28.23;7.40;;;589.70;2406.40;;;;;;5035148;28;20382;-79
2021/08/02 03:59:42;;;;;;;23.35;8.52;;;589.50;2432.00;;;;;;5035552;28;20029;-78
2021/08/02 04:02:08;;;;;;;23.77;7.85;;;589.30;2432.00;;;;;;5053048;28;20036;-80
2021/08/02 04:04:34;;;;;;;28.63;8.63;;;589.30;2432.00;;;;;;5035520;28;20029;-79
2021/08/02 04:07:00;;;;;;;26.67;9.40;;;589.60;2432.00;;;;;;5035486;28;20021;-80
2021/08/02 04:09:25;;;;;;;20.92;8.18;;;589.70;2432.00;;;;;;5035276;28;20028;-78
2021/08/02 04:11:51;;;;;;;24.90;8.20;;;614.60;2406.40;;;;;;5035226;28;20021;-79
2021/08/02 04:14:17;;;;;;;22.40;8.75;;;589.70;2432.00;;;;;;5035446;28;20352;-78
2021/08/02 04:16:43;;;;;;;25.00;6.93;;;614.40;2406.40;;;;;;5052617;28;20366;-80
2021/08/02 04:19:09;;;;;;;20.83;7.68;;;589.70;2432.00;;;;;;5035338;28;20021;-80
2021/08/02 04:21:35;;;;;;;26.20;9.23;;;589.50;2432.00;;;;;;5036362;28;20111;-80
2021/08/02 04:24:02;;;;;;;20.10;7.68;;;589.60;2432.00;;;;;;5039000;28;20099;-78
2021/08/02 04:26:27;;;;;;;30.40;10.18;;;589.70;2432.00;;;;;;5039001;28;20024;-79
2021/08/02 04:28:56;;;;;;;21.75;8.55;;;589.60;2432.00;;;;;;5038611;28;20473;-79
2021/08/02 04:31:31;;;;;;;20.23;7.47;;;589.70;2432.00;;;;;;5068372;28;20048;-77
2021/08/02 04:33:57;;;;;;;23.48;7.97;;;614.40;2432.00;;;;;;5055172;28;20041;-77
2021/08/02 04:36:24;;;;;;;21.48;7.53;;;589.70;2432.00;;;;;;5054011;28;20028;-75
2021/08/02 04:38:50;;;;;;;20.15;8.68;;;614.40;2432.00;;;;;;5054209;28;20017;-77
2021/08/02 04:41:16;;;;;;;22.55;8.40;;;614.60;2432.00;;;;;;5053170;28;20025;-77
2021/08/02 04:43:42;;;;;;;19.50;7.43;;;589.50;2432.00;;;;;;5053854;28;20051;-76
2021/08/02 04:46:08;;;;;;;23.15;8.13;;;614.50;2432.00;;;;;;5054310;28;20028;-75
2021/08/02 04:48:34;;;;;;;25.33;7.82;;;614.50;2432.00;;;;;;5043474;28;20031;-80
2021/08/02 04:51:00;;;;;;;25.88;9.73;;;614.50;2432.00;;;;;;5038713;28;20033;-79
2021/08/02 04:53:25;;;;;;;21.45;7.80;;;614.50;2432.00;;;;;;5038835;28;20023;-78
2021/08/02 04:55:51;;;;;;;23.48;7.72;;;589.70;2432.00;;;;;;5039031;28;20020;-79
2021/08/02 04:58:17;;;;;;;35.70;8.48;;;614.50;2432.00;;;;;;5056365;28;20070;-78
2021/08/02 05:00:43;;;;;;;22.00;8.38;;;614.70;2406.40;;;;;;5038559;28;20036;-79
2021/08/02 05:03:09;;;;;;;20.52;8.02;;;614.60;2406.40;;;;;;5038452;28;20032;-78
2021/08/02 05:05:35;;;;;;;22.85;8.93;;;614.50;2432.00;;;;;;5038239;28;20108;-79
2021/08/02 05:08:01;;;;;;;23.67;9.02;;;614.40;2432.00;;;;;;5038155;28;20045;-77
2021/08/02 05:10:27;;;;;;;18.48;8.80;;;614.50;2432.00;;;;;;5037754;28;20031;-76
2021/08/02 05:12:53;;;;;;;21.40;8.65;;;614.40;2432.00;;;;;;5037921;28;20079;-77
2021/08/02 05:15:19;;;;;;;25.25;7.50;;;589.70;2432.00;;;;;;5037850;28;20021;-78
2021/08/02 05:17:45;;;;;;;19.23;7.63;;;589.70;2432.00;;;;;;5055716;28;20025;-79
2021/08/02 05:20:11;;;;;;;18.73;7.85;;;614.50;2432.00;;;;;;5037877;28;20025;-79
2021/08/02 05:22:37;;;;;;;20.67;7.07;;;614.50;2432.00;;;;;;5037908;28;20029;-78
2021/08/02 05:25:03;;;;;;;18.02;7.38;;;614.70;2432.00;;;;;;5055184;28;20017;-78
2021/08/02 05:27:29;;;;;;;20.08;7.72;;;614.70;2432.00;;;;;;5037737;28;20024;-77
2021/08/02 05:29:55;;;;;;;15.07;6.68;;;615.10;2329.60;;;;;;5037702;28;20359;-79
2021/08/02 05:32:21;;;;;;;29.30;8.43;;;615.20;2329.60;;;;;;5037245;28;20366;-81
2021/08/02 05:34:47;;;;;;;18.75;6.95;;;615.30;2304.00;;;;;;5054796;28;20024;-79
2021/08/02 05:37:13;;;;;;;26.88;8.20;;;640.10;2227.20;;;;;;5037645;28;20090;-79
2021/08/02 05:39:40;;;;;;;21.88;6.75;;;640.30;2252.80;;;;;;5037433;28;20021;-79
2021/08/02 05:42:07;;;;;;;20.48;7.43;;;640.50;2150.40;;;;;;5055000;28;20025;-82
2021/08/02 05:44:33;;;;;;;23.58;7.43;;;640.70;2201.60;;;;;;5037464;28;20458;-81
2021/08/02 05:47:00;;;;;;;25.25;9.02;;;640.90;2176.00;;;;;;5037117;28;20442;-82
2021/08/02 05:49:26;;;;;;;22.80;9.57;;;665.90;2304.00;;;;;;5037418;28;20078;-81
2021/08/02 05:51:54;;;;;;;32.42;13.57;;;665.70;2329.60;;;;;;5037310;28;20029;-79
2021/08/02 05:54:20;;;;;;;28.20;11.05;;;665.90;2304.00;;;;;;5037025;28;20021;-80
2021/08/02 05:56:45;;;;;;;31.75;12.35;;;666.00;2304.00;;;;;;5036984;28;20045;-78
2021/08/02 05:59:11;;;;;;;23.00;10.10;;;666.20;2329.60;;;;;;5037155;28;20409;-79
2021/08/02 06:01:37;;;;;;;29.10;8.52;;;666.10;2278.40;;;;;;5036825;28;20462;-77
2021/08/02 06:04:03;;;;;;;29.40;8.63;;;666.20;2227.20;;;;;;5036982;28;20082;-79
2021/08/02 06:06:29;;;;;;;21.02;8.20;;;666.20;2227.20;;;;;;5036771;28;20032;-80
2021/08/02 06:08:54;;;;;;;19.48;7.30;;;666.30;2227.20;;;;;;5036648;28;20025;-80
2021/08/02 06:11:20;;;;;;;19.60;6.63;;;666.50;2227.20;;;;;;5036848;28;20082;-79
2021/08/02 06:13:48;;;;;;;23.08;7.18;;;691.30;2176.00;;;;;;5036656;28;20017;-80
2021/08/02 06:16:20;;;;;;;18.88;7.30;;;691.30;2201.60;;;;;;5037104;28;20067;-79
2021/08/02 06:18:46;;;;;;;21.77;7.35;;;691.60;2176.00;;;;;;5036905;28;20083;-79
2021/08/02 06:21:11;;;;;;;17.73;6.97;;;691.60;2176.00;;;;;;5036223;28;20033;-80
2021/08/02 06:23:37;;;;;;;23.52;7.00;;;691.60;2176.00;;;;;;5036619;28;20033;-80
2021/08/02 06:26:03;;;;;;;25.40;8.05;;;691.70;2201.60;;;;;;5054178;28;20100;-80
2021/08/02 06:28:28;;;;;;;22.55;8.55;;;691.70;2176.00;;;;;;5036306;28;20032;-78
2021/08/02 06:30:54;;;;;;;36.83;10.48;;;691.80;2201.60;;;;;;5035955;28;20029;-80
2021/08/02 06:33:23;;;;;;;21.00;8.50;;;691.80;2201.60;;;;;;5035965;28;20021;-79
2021/08/02 06:35:49;;;;;;;37.50;8.68;;;691.90;2227.20;;;;;;5053345;28;20021;-80
2021/08/02 06:38:14;;;;;;;23.85;8.75;;;692.00;2252.80;;;;;;5036281;28;20024;-79
2021/08/02 06:40:40;;;;;;;20.63;7.43;;;692.10;2252.80;;;;;;5053903;28;20028;-82
2021/08/02 06:43:06;;;;;;;18.95;8.07;;;716.80;2278.40;;;;;;5053893;28;20025;-79
2021/08/02 06:45:32;;;;;;;20.27;8.38;;;716.80;2278.40;;;;;;5034912;28;20032;-78
2021/08/02 06:47:57;;;;;;;29.30;8.57;;;716.90;2278.40;;;;;;5035727;28;20027;-79
2021/08/02 06:50:25;;;;;;;22.02;7.50;;;716.90;2252.80;;;;;;5035458;28;20454;-82
2021/08/02 06:52:52;;;;;;;23.98;8.73;;;717.10;2227.20;;;;;;5036154;28;20454;-79
2021/08/02 06:55:18;;;;;;;18.45;7.47;;;717.20;2227.20;;;;;;5036219;28;20028;-78
2021/08/02 06:57:44;;;;;;;21.92;7.43;;;717.40;2227.20;;;;;;5035555;28;20236;-79
2021/08/02 07:00:10;;;;;;;25.45;8.00;;;717.50;2252.80;;;;;;5035481;28;20526;-78
2021/08/02 07:02:36;;;;;;;23.27;9.13;;;717.40;2201.60;;;;;;5035009;28;20108;-79
2021/08/02 07:05:02;;;;;;;22.77;7.80;;;742.40;2227.20;;;;;;5035437;28;20140;-80
2021/08/02 07:07:28;;;;;;;23.83;7.90;;;742.40;2201.60;;;;;;5035487;28;20025;-76
2021/08/02 07:09:54;;;;;;;28.92;8.43;;;742.70;2201.60;;;;;;5053634;28;20054;-76
2021/08/02 07:12:20;;;;;;;30.70;9.20;;;742.80;2176.00;;;;;;5035293;28;20036;-77
2021/08/02 07:14:45;;;;;;;18.63;8.40;;;742.90;2150.40;;;;;;5035455;28;20021;-76
2021/08/02 07:17:11;;;;;;;20.40;7.82;;;743.00;2150.40;;;;;;5034876;28;20025;-79
2021/08/02 07:19:38;;;;;;;19.48;7.68;;;743.10;2099.20;;;;;;5035260;28;20072;-78
2021/08/02 07:22:04;;;;;;;25.75;7.72;;;743.20;2073.60;;;;;;5035234;28;20466;-76
2021/08/02 07:24:30;;;;;;;24.23;10.23;;;743.30;2073.60;;;;;;5034793;28;20363;-75
2021/08/02 07:26:55;;;;;;;30.23;8.27;;;768.10;2099.20;;;;;;5023304;28;20017;-77
2021/08/02 07:29:21;;;;;;;26.70;7.03;;;768.30;2124.80;;;;;;5035169;28;20032;-79
2021/08/02 07:31:47;;;;;;;21.90;7.70;;;768.30;2124.80;;;;;;5052477;28;20021;-76
2021/08/02 07:34:13;;;;;;;23.70;7.78;;;768.50;2124.80;;;;;;5035453;28;20107;-77
2021/08/02 07:36:39;;;;;;;25.77;8.45;;;768.60;2099.20;;;;;;5053190;28;20021;-75
2021/08/02 07:39:04;;;;;;;20.55;8.63;;;768.70;2099.20;;;;;;5035517;28;20021;-77
2021/08/02 07:41:31;;;;;;;29.88;8.88;;;768.90;2073.60;;;;;;5035674;28;20029;-80
2021/08/02 07:43:57;;;;;;;22.42;9.32;;;793.70;2073.60;;;;;;5053665;28;20029;-81
2021/08/02 07:46:23;;;;;;;27.33;9.80;;;793.90;2048.00;;;;;;5035138;28;20048;-80
2021/08/02 07:48:52;;;;;;;23.90;9.48;;;794.10;2048.00;;;;;;5035748;28;20024;-79
2021/08/02 07:51:21;;;;;;;17.50;6.50;;;794.20;2022.40;;;;;;5035583;28;20492;-81
2021/08/02 07:53:47;;;;;;;19.45;7.63;;;794.40;1971.20;;;;;;5035564;28;20396;-80
2021/08/02 07:56:13;;;;;;;18.83;7.45;;;794.50;1971.20;;;;;;5036640;28;20116;-79
2021/08/02 07:58:38;;;;;;;23.08;6.65;;;819.30;1894.40;;;;;;5038794;28;20048;-81
2021/08/02 08:01:04;;;;;;;28.30;9.38;;;819.50;1894.40;;;;;;5057448;28;20450;-79
2021/08/02 08:03:30;;;;;;;23.15;11.00;;;819.60;1894.40;;;;;;5039399;28;20454;-79
2021/08/02 08:05:56;;;;;;;41.85;11.68;;;819.60;1894.40;;;;;;5038985;28;20381;-82
2021/08/02 08:08:22;;;;;;;21.10;7.78;;;819.80;1894.40;;;;;;5039554;28;20024;-79
2021/08/02 08:10:48;;;;;;;20.90;8.13;;;819.70;1843.20;;;;;;5038827;28;20029;-80
2021/08/02 08:13:14;;;;;;;19.20;7.75;;;819.90;1843.20;;;;;;5056878;28;20021;-78
2021/08/02 08:15:40;;;;;;;25.48;7.25;;;820.00;1843.20;;;;;;5039201;28;20024;-80
2021/08/02 08:18:06;;;;;;;26.38;7.72;;;820.10;1817.60;;;;;;5038893;28;20024;-80
2021/08/02 08:20:33;;;;;;;24.67;8.43;;;820.10;1792.00;;;;;;5041390;28;20021;-80
2021/08/02 08:22:59;;;;;;;22.70;8.02;;;844.90;1843.20;;;;;;5043565;28;20033;-79
2021/08/02 08:25:25;;;;;;;21.63;7.55;;;845.10;1817.60;;;;;;5042706;28;20508;-80
2021/08/02 08:27:51;;;;;;;20.65;7.25;;;845.00;1792.00;;;;;;5040620;28;20025;-82
2021/08/02 08:30:20;;;;;;;19.88;6.47;;;845.20;1817.60;;;;;;5038994;28;20025;-79
2021/08/02 08:32:45;;;;;;;24.35;6.70;;;845.40;1792.00;;;;;;5038915;28;20021;-80
2021/08/02 08:35:12;;;;;;;16.70;6.25;;;845.50;1792.00;;;;;;5038734;28;20367;-80
2021/08/02 08:37:38;;;;;;;18.80;6.63;;;845.30;1766.40;;;;;;5056704;28;20028;-77
2021/08/02 08:40:07;;;;;;;19.17;7.55;;;845.20;1766.40;;;;;;5038186;28;20021;-79
2021/08/02 08:42:33;;;;;;;17.63;7.85;;;845.30;1792.00;;;;;;5055992;28;20017;-78
2021/08/02 08:44:59;;;;;;;23.55;8.18;;;845.50;1792.00;;;;;;5038488;28;20028;-78
2021/08/02 08:47:25;;;;;;;26.08;8.98;;;845.60;1766.40;;;;;;5038196;28;20017;-79
2021/08/02 08:49:51;;;;;;;19.75;6.70;;;845.70;1766.40;;;;;;5055822;28;20471;-80
2021/08/02 08:52:17;;;;;;;20.83;7.43;;;845.40;1740.80;;;;;;5056111;28;20108;-77
2021/08/02 08:54:43;;;;;;;21.95;6.85;;;845.70;1766.40;;;;;;5037708;28;20111;-78
2021/08/02 08:57:11;;;;;;;24.73;7.20;;;845.70;1740.80;;;;;;5037479;28;20390;-79
2021/08/02 08:59:51;;;;;;;26.27;7.60;;;870.50;1740.80;;;;;;5038333;28;20086;-80
2021/08/02 09:02:24;;;;;;;17.40;6.78;;;870.70;1766.40;;;;;;5037774;28;20025;-80
2021/08/02 09:04:55;;;;;;;19.08;6.30;;;871.10;1740.80;;;;;;5037626;28;20454;-79
2021/08/02 09:07:35;;;;;;;17.55;9.80;;;871.10;1715.20;;;;;;5055354;28;20055;-83
2021/08/02 09:10:02;;;;;;;18.52;7.05;;;871.10;1715.20;;;;;;5055431;28;20020;-80
2021/08/02 09:12:28;;;;;;;17.05;7.35;;;871.30;1740.80;;;;;;5037873;28;20035;-81
2021/08/02 09:14:59;;;;;;;23.77;7.65;;;871.30;1715.20;;;;;;5056000;28;20092;-80
2021/08/02 09:17:34;;;;;;;18.75;7.05;;;896.10;1689.60;;;;;;5037742;28;20564;-79
2021/08/02 09:20:02;;;;;;;19.08;6.88;;;896.00;1689.60;;;;;;5037701;28;20032;-78
2021/08/02 09:22:31;;;;;;;16.08;6.05;;;896.00;1689.60;;;;;;5055460;28;20029;-80
2021/08/02 09:25:21;;;;;;;22.92;7.95;;;896.50;1689.60;;;;;;5037557;28;20025;-79
2021/08/02 09:27:49;;;;;;;20.02;7.00;;;896.60;1664.00;;;;;;5038025;28;20025;-79
2021/08/02 09:30:24;;;;;;;16.83;7.13;;;896.90;1638.40;;;;;;5055205;28;20504;-80
2021/08/02 09:33:04;;;;;;;20.63;9.50;;;896.90;1638.40;;;;;;5037907;28;20025;-80
2021/08/02 09:35:36;;;;;;;20.30;8.53;;;921.60;1664.00;;;;;;5037943;28;20044;-80
2021/08/02 09:38:08;;;;;;;19.15;8.18;;;921.80;1638.40;;;;;;5037557;28;20017;-81
2021/08/02 09:40:49;;;;;;;17.10;6.90;;;922.00;1638.40;;;;;;5038000;28;20017;-79
2021/08/02 09:43:19;;;;;;;14.80;6.28;;;922.00;1638.40;;;;;;5042748;28;20079;-82
2021/08/02 09:45:52;;;;;;;18.25;5.75;;;922.00;1612.80;;;;;;5040184;28;20039;-80
2021/08/02 09:48:19;;;;;;;17.65;6.05;;;922.00;1638.40;;;;;;5055717;28;20443;-82
2021/08/02 09:50:49;;;;;;;16.67;5.63;;;922.20;1612.80;;;;;;5037130;28;20025;-79
2021/08/02 09:53:18;;;;;;;15.35;6.05;;;922.40;1612.80;;;;;;5055368;28;20199;-79
2021/08/02 09:55:47;;;;;;;14.45;5.55;;;922.20;1587.20;;;;;;5037235;28;20032;-80
2021/08/02 09:58:18;;;;;;;24.83;6.63;;;922.30;1612.80;;;;;;5036773;28;20049;-79
2021/08/02 10:00:45;;;;;;;23.48;9.63;;;947.20;1561.60;;;;;;5037200;28;20108;-84
2021/08/02 10:03:13;;;;;;;15.65;5.85;;;947.50;1587.20;;;;;;5037343;28;20072;-80
2021/08/02 10:05:39;;;;;;;11.13;5.03;;;947.60;1561.60;;;;;;5036728;28;20021;-80
2021/08/02 10:08:06;;;;;;;12.95;5.60;;;947.70;1587.20;;;;;;5036844;28;20021;-81
2021/08/02 10:10:36;;;;;;;18.70;5.72;;;947.50;1561.60;;;;;;5055098;28;20017;-81
2021/08/02 10:13:09;;;;;;;15.20;5.60;;;947.60;1536.00;;;;;;5036802;28;20025;-81
2021/08/02 10:15:35;;;;;;;13.02;5.63;;;947.60;1561.60;;;;;;5036966;28;20048;-79
2021/08/02 10:18:05;;;;;;;21.45;10.90;;;947.50;1536.00;;;;;;5036963;28;20454;-83
2021/08/02 10:20:34;;;;;;;19.90;8.45;;;947.80;1561.60;;;;;;5036349;28;20017;-81
2021/08/02 10:23:02;;;;;;;17.75;7.75;;;948.10;1536.00;;;;;;5036827;28;20480;-80
2021/08/02 10:25:32;;;;;;;18.58;7.38;;;948.10;1510.40;;;;;;5053990;28;20028;-82
2021/08/02 10:28:09;;;;;;;16.40;6.55;;;973.00;1561.60;;;;;;5036744;28;20415;-81
2021/08/02 10:30:36;;;;;;;17.65;6.45;;;973.30;1561.60;;;;;;5036736;28;20021;-80
2021/08/02 10:33:02;;;;;;;20.90;6.40;;;973.40;1536.00;;;;;;5036155;28;20525;-79
2021/08/02 10:35:40;;;;;;;17.40;6.80;;;973.40;1587.20;;;;;;5036564;28;20405;-82
2021/08/02 10:38:15;;;;;;;14.63;5.40;;;973.60;1561.60;;;;;;5036660;28;20044;-80
2021/08/02 10:40:47;;;;;;;16.33;6.22;;;973.50;1561.60;;;;;;5053916;28;20021;-81
2021/08/02 10:43:13;;;;;;;13.02;4.88;;;973.50;1612.80;;;;;;5036540;28;20021;-81
2021/08/02 10:45:41;;;;;;;12.73;4.50;;;973.40;1612.80;;;;;;5036402;28;20485;-82
2021/08/02 10:48:07;;;;;;;18.70;5.45;;;973.40;1612.80;;;;;;5036210;28;20059;-80
2021/08/02 10:50:37;;;;;;;14.00;4.75;;;973.20;1612.80;;;;;;5036196;28;20021;-80
2021/08/02 10:53:13;;;;;;;15.77;5.50;;;973.10;1638.40;;;;;;5036305;28;20021;-81
2021/08/02 10:55:44;;;;;;;13.02;5.18;;;973.10;1638.40;;;;;;5036048;28;20032;-81
2021/08/02 10:58:10;;;;;;;15.13;4.97;;;973.20;1638.40;;;;;;5032779;28;20132;-81
2021/08/02 11:00:37;;;;;;;16.42;6.03;;;973.00;1612.80;;;;;;5032646;28;20427;-80
2021/08/02 11:03:05;;;;;;;18.88;5.75;;;973.00;1638.40;;;;;;5032899;28;20120;-81
2021/08/02 11:05:32;;;;;;;15.13;5.68;;;973.00;1638.40;;;;;;5033317;28;20026;-81
2021/08/02 11:08:05;;;;;;;12.00;5.05;;;972.80;1638.40;;;;;;5032645;28;20374;-82
2021/08/02 11:10:32;;;;;;;14.07;5.22;;;973.00;1664.00;;;;;;5032675;28;20076;-81
2021/08/02 11:12:58;;;;;;;17.40;5.15;;;972.80;1664.00;;;;;;5032688;28;20029;-80
2021/08/02 11:15:24;;;;;;;12.52;5.28;;;948.10;1664.00;;;;;;5033595;28;20018;-80
2021/08/02 11:17:54;;;;;;;14.60;5.65;;;948.10;1664.00;;;;;;5039953;28;20055;-80
2021/08/02 11:20:20;;;;;;;12.95;6.13;;;973.00;1638.40;;;;;;5043847;28;20029;-79
2021/08/02 11:22:55;;;;;;;12.60;4.72;;;973.00;1664.00;;;;;;5042997;28;20101;-79
2021/08/02 11:25:37;;;;;;;13.90;4.60;;;973.20;1612.80;;;;;;5043916;28;20029;-79
2021/08/02 11:28:03;;;;;;;10.10;4.90;;;973.20;1638.40;;;;;;5045111;28;20458;-80
2021/08/02 11:30:30;;;;;;;14.70;5.13;;;973.20;1638.40;;;;;;5043686;28;20025;-80
2021/08/02 11:32:56;;;;;;;13.43;4.82;;;973.20;1638.40;;;;;;5047442;28;20167;-80
2021/08/02 11:35:42;;;;;;;22.00;5.32;;;973.70;1638.40;;;;;;5047669;28;20052;-80
2021/08/02 11:38:08;;;;;;;12.30;5.28;;;973.40;1638.40;;;;;;5047609;28;20034;-81
2021/08/02 11:40:36;;;;;;;19.52;5.93;;;973.30;1638.40;;;;;;5047262;28;20068;-80
2021/08/02 11:43:03;;;;;;;16.00;6.40;;;973.50;1638.40;;;;;;5047120;28;20026;-81
2021/08/02 11:45:29;;;;;;;12.00;4.70;;;973.60;1638.40;;;;;;5045412;28;20021;-81
2021/08/02 11:47:58;;;;;;;13.43;5.15;;;973.50;1638.40;;;;;;5039053;28;20117;-82
2021/08/02 11:50:28;;;;;;;13.65;4.80;;;973.40;1638.40;;;;;;5036406;28;20026;-81
2021/08/02 11:53:04;;;;;;;14.90;4.70;;;973.40;1638.40;;;;;;5037069;28;20029;-81
2021/08/02 11:55:30;;;;;;;11.05;4.75;;;973.50;1664.00;;;;;;5036838;28;20018;-80
2021/08/02 11:58:00;;;;;;;12.82;5.10;;;973.70;1664.00;;;;;;5036281;28;20183;-81
2021/08/02 12:00:26;;;;;;;12.37;4.17;;;973.40;1664.00;;;;;;5036762;28;20056;-80
2021/08/02 12:02:52;;;;;;;10.32;4.50;;;973.40;1664.00;;;;;;5037555;28;20044;-82
2021/08/02 12:05:29;;;;;;;16.67;4.90;;;973.40;1638.40;;;;;;5036313;28;20022;-81
2021/08/02 12:08:06;;;;;;;13.38;4.72;;;973.40;1664.00;;;;;;5036449;28;20041;-82
2021/08/02 12:10:33;;;;;;;11.43;4.50;;;973.30;1664.00;;;;;;5036045;28;20367;-81
2021/08/02 12:13:07;;;;;;;10.75;4.82;;;973.30;1664.00;;;;;;5036431;28;20437;-81
2021/08/02 12:15:34;;;;;;;11.80;4.32;;;973.20;1664.00;;;;;;5037163;28;20017;-82
2021/08/02 12:18:00;;;;;;;17.38;5.18;;;973.10;1664.00;;;;;;5035781;28;20033;-80
2021/08/02 12:20:36;;;;;;;8.90;4.07;;;973.20;1664.00;;;;;;5036266;28;20031;-81
2021/08/02 12:23:05;;;;;;;11.57;4.50;;;973.10;1689.60;;;;;;5035999;28;20486;-81
2021/08/02 12:25:38;;;;;;;15.35;4.78;;;973.20;1664.00;;;;;;5035834;28;20025;-81
2021/08/02 12:28:07;;;;;;;16.80;4.18;;;973.00;1689.60;;;;;;5035638;28;20021;-79
2021/08/02 12:30:34;;;;;;;8.73;4.68;;;973.10;1664.00;;;;;;5037566;28;20390;-81